Accueil
METAR-TAF:

METAR-TAF

Aéroports :

Aéroport de La Rochelle - île de Ré

La Rochelle, France

latitude: 46-10-45N, longitude: 1-11-43W, altitude: 23 m

Observation

Le bulletin a été fait il y a 18 minutes, à 09:00 UTC
Vent 12 kt de nord
Température 11°C
Humidité 54%
Pression 1025 hPa
Visibilité 10 km ou plus
pas de nuages en-dessous de 1500 mètres et pas de cumulonimbus.

METAR: LFBH 170900Z AUTO 01012KT CAVOK 11/02 Q1025 NOSIG

Heure: 11:18 (09:18 UTC)

Prévision

Le bulletin a été fait il y a 4 heures et 18 minutes, à 05:00 UTC
Prévision valable du 17 à 06 UTC au 18 à 06 UTC
Vent 8 kt de nord/nord-est
Visibilité 10 km ou plus
pas de nuages en-dessous de 1500 mètres et pas de cumulonimbus.

TAF: LFBH 170500Z 1706/1806 02008KT CAVOK

Observations et prévisions météorologiques de plus de 4000 aéroports (messages METAR et TAF).

Les stations disponibles sont représentées par des disques jaunes et rouges sur la carte.

Passer la souris dessus pour voir le nom de la station.

Cliquer dessus pour voir les observations et prévisions météorologiques.

Pour changer de carte: cliquez sur les boutons verts avec une croix noire pour zoomer, sur le bouton vert avec un tiret pour effectuer un zoom arrière, ou sur les flèches vertes pour les cartes adjacentes.


METAR-TAF: